December 21st, 2019

gazel

Горим КЕМ!

К хоббитятам на Новый Год пришел Гендальф и сказал "Елочка, зажгись!". Возникший пожар тушили неделю. Весело-весело встретим Новый Год!

https://www.rfs.nsw.gov.au/fire-information/fires-near-me

Сейчас оно выглядит вот так - то есть горит на площади примерно километров 500*150, от Батеманс Бея (где дорога на Канберру) до Нюкасла и от начала леса на Голгорах до Лисго. На севере (пт Маквари, Коффс Харбор), что не сгорело месяц назад, все так и продолжает гореть.



Потому что самая лучшая погода - сушь, тепло и ветрила одновременно.

TTF SPECI YSSY 210630Z 18029G40KT 4500 FU 23/19 Q1009
RMK RF00.0/000.0 SKY OBSCURED, FU
FM0645 18030G45KT 9000 HZ FEW008

переводим на нормальный язык - ветер 180 градусов, 29 узлов порывы до 45 (аж свистит!), температура 23 с точкой росы 19 (мой наружный термометр показывает 27С 61% влажности). Если чего где загорелось, то по сухому говну бежит со скоростью ну не ветра, но этак треть, то есть узлов 10, 20км/ч. Даже убежать на ногах и то проблематично.



Collapse )


Самалет на завтра похоже опять отменился, как и в прошлые выходные все будет в дыму, с 1000фт землю уже не видно и хрен полетаешь.